Time;durP1;ratioP1;P1;durP2;ratioP2;P2;SDS_P1;SDS_P2;PMS_P1;PMS_P2;Temp;Humidity;BMP_temperature;BMP_pressure;BME280_temperature;BME280_humidity;BME280_pressure;Samples;Min_cycle;Max_cycle;Signal;HPM_P1;HPM_P2
2022/07/21 00:01:15;;;;;;;;;;;;;;;17.04;62.71;97452.70;110457;1244;68673;-71
2022/07/21 00:03:44;;;;;;;;;;;;;;;16.99;62.83;97448.37;110228;1247;59791;-70
2022/07/21 00:06:13;;;;;;;;;;;;;;;16.98;62.02;97449.91;110251;1248;59747;-72
2022/07/21 00:08:42;;;;;;;;;;;;;;;16.98;61.88;97450.23;110289;1246;71572;-70
2022/07/21 00:11:12;;;;;;;;;;;;;;;17.00;63.75;97449.90;110589;1245;67734;-72
2022/07/21 00:13:42;;;;;;;;;;;;;;;16.99;63.45;97447.57;110299;1247;67507;-72
2022/07/21 00:16:11;;;;;;;;;;;;;;;16.95;65.14;97446.66;110522;1245;59754;-72
2022/07/21 00:18:47;;;;;;;;;;;;;;;16.87;64.47;97447.69;110456;1245;59673;-67
2022/07/21 00:21:16;;;;;;;;;;;;;;;16.77;63.27;97449.15;110643;1247;69783;-72
2022/07/21 00:23:47;;;;;;;;;;;;;;;16.68;63.30;97448.39;110599;1246;67868;-72
2022/07/21 00:26:17;;;;;;;;;;;;;;;16.60;64.14;97446.39;110172;1247;68446;-73
2022/07/21 00:28:47;;;;;;;;;;;;;;;16.55;64.28;97449.17;110478;1244;59669;-74
2022/07/21 00:31:17;;;;;;;;;;;;;;;16.49;65.06;97452.87;110481;1247;59754;-72
2022/07/21 00:33:50;;;;;;;;;;;;;;;16.44;65.05;97448.95;110265;1247;71630;-69
2022/07/21 00:36:20;;;;;;;;;;;;;;;16.45;65.09;97453.84;110425;1246;68574;-73
2022/07/21 00:38:49;;;;;;;;;;;;;;;16.47;65.97;97458.02;110304;1247;68445;-65
2022/07/21 00:41:19;;;;;;;;;;;;;;;16.47;63.00;97455.25;110326;1247;59680;-72
2022/07/21 00:43:47;;;;;;;;;;;;;;;16.44;63.17;97455.31;110190;1247;59808;-70
2022/07/21 00:46:19;;;;;;;;;;;;;;;16.41;62.07;97454.55;110429;1247;71721;-69
2022/07/21 00:48:49;;;;;;;;;;;;;;;16.39;64.92;97454.42;110541;1246;67770;-66
2022/07/21 00:51:19;;;;;;;;;;;;;;;16.40;67.75;97455.69;110445;1247;67965;-70
2022/07/21 00:53:49;;;;;;;;;;;;;;;16.40;68.28;97457.25;110389;1246;59705;-71
2022/07/21 00:56:20;;;;;;;;;;;;;;;16.40;67.12;97453.38;110209;1248;59738;-68
2022/07/21 00:58:50;;;;;;;;;;;;;;;16.41;66.28;97454.20;110549;1246;70907;-69
2022/07/21 01:01:21;;;;;;;;;;;;;;;16.41;65.21;97453.84;110256;1247;69207;-70
2022/07/21 01:03:51;;;;;;;;;;;;;;;16.38;65.82;97453.13;110296;1246;69627;-65
2022/07/21 01:06:25;;;;;;;;;;;;;;;16.28;67.41;97454.76;110288;1245;59713;-70
2022/07/21 01:08:54;;;;;;;;;;;;;;;16.20;66.25;97454.46;110435;1244;59744;-70
2022/07/21 01:11:29;;;;;;;;;;;;;;;16.10;66.92;97451.86;110397;1247;71729;-66
2022/07/21 01:14:00;;;;;;;;;;;;;;;15.95;66.84;97452.44;110477;1247;68518;-74
2022/07/21 01:16:30;;;;;;;;;;;;;;;15.80;68.23;97452.39;110035;1248;69550;-69
2022/07/21 01:18:59;;;;;;;;;;;;;;;15.68;68.51;97447.33;110342;1246;59784;-72
2022/07/21 01:21:31;;;;;;;;;;;;;;;15.64;67.93;97451.77;110081;1247;59714;-68
2022/07/21 01:24:02;;;;;;;;;;;;;;;15.62;66.44;97454.23;110287;1245;71539;-70
2022/07/21 01:26:39;;;;;;;;;;;;;;;15.64;65.40;97458.68;110262;1247;68579;-68
2022/07/21 01:29:10;;;;;;;;;;;;;;;15.62;68.14;97460.59;110207;1246;69326;-68
2022/07/21 01:31:41;;;;;;;;;;;;;;;15.57;69.90;97458.38;110200;1247;59756;-66
2022/07/21 01:34:11;;;;;;;;;;;;;;;15.48;68.55;97457.08;110376;1247;59677;-72
2022/07/21 01:36:41;;;;;;;;;;;;;;;15.42;68.79;97457.83;110528;1247;70931;-71
2022/07/21 01:42:01;;;;;;;;;;;;;;;15.47;69.85;97455.11;110436;1244;69763;-71
2022/07/21 01:44:31;;;;;;;;;;;;;;;15.52;68.89;97452.30;110595;1247;59682;-65
2022/07/21 01:47:01;;;;;;;;;;;;;;;15.51;68.76;97448.77;110404;1246;59683;-69
2022/07/21 01:49:31;;;;;;;;;;;;;;;15.43;67.67;97449.45;110340;1246;71543;-64
2022/07/21 01:52:02;;;;;;;;;;;;;;;15.36;66.89;97446.27;110369;1245;68064;-68
2022/07/21 01:54:32;;;;;;;;;;;;;;;15.31;68.94;97440.22;110070;1247;69278;-70
2022/07/21 01:57:03;;;;;;;;;;;;;;;15.26;69.36;97433.67;110374;1247;59792;-70
2022/07/21 01:59:33;;;;;;;;;;;;;;;15.22;70.43;97431.75;110145;1247;59668;-72
2022/07/21 02:02:05;;;;;;;;;;;;;;;15.17;72.19;97432.94;110655;1247;70826;-70
2022/07/21 02:04:36;;;;;;;;;;;;;;;15.11;72.35;97438.04;110096;1247;68464;-71
2022/07/21 02:07:05;;;;;;;;;;;;;;;15.04;72.87;97444.25;110516;1247;69264;-70
2022/07/21 02:09:35;;;;;;;;;;;;;;;15.00;74.54;97446.70;110525;1245;59747;-71
2022/07/21 02:12:05;;;;;;;;;;;;;;;14.98;73.49;97444.95;110534;1246;59677;-71
2022/07/21 02:14:36;;;;;;;;;;;;;;;14.97;73.32;97443.15;110569;1247;70652;-72
2022/07/21 02:17:06;;;;;;;;;;;;;;;14.94;75.34;97441.81;110463;1245;68463;-73
2022/07/21 02:19:36;;;;;;;;;;;;;;;14.92;75.02;97436.89;110384;1247;68400;-73
2022/07/21 02:22:06;;;;;;;;;;;;;;;14.86;71.30;97436.37;110563;1246;59711;-73
2022/07/21 02:24:36;;;;;;;;;;;;;;;14.83;71.26;97437.77;110254;1247;59761;-70
2022/07/21 02:27:06;;;;;;;;;;;;;;;14.75;73.52;97438.98;110545;1247;70597;-70
2022/07/21 02:29:35;;;;;;;;;;;;;;;14.64;74.74;97439.79;110409;1245;68610;-71
2022/07/21 02:32:05;;;;;;;;;;;;;;;14.54;75.64;97435.80;110469;1247;67469;-72
2022/07/21 02:34:36;;;;;;;;;;;;;;;14.47;76.24;97439.50;110537;1247;59796;-66
2022/07/21 02:37:06;;;;;;;;;;;;;;;14.44;76.59;97432.23;110506;1247;59684;-68
2022/07/21 02:39:36;;;;;;;;;;;;;;;14.43;74.29;97435.77;110444;1246;71751;-67
2022/07/21 02:42:06;;;;;;;;;;;;;;;14.42;74.71;97444.30;110423;1247;67447;-68
2022/07/21 02:44:36;;;;;;;;;;;;;;;14.41;76.42;97440.94;110295;1247;69446;-66
2022/07/21 02:47:05;;;;;;;;;;;;;;;14.41;76.46;97446.67;110369;1247;59755;-65
2022/07/21 02:49:36;;;;;;;;;;;;;;;14.43;76.07;97452.49;110480;1244;59666;-65
2022/07/21 02:52:06;;;;;;;;;;;;;;;14.42;75.73;97456.03;110469;1246;71537;-65
2022/07/21 02:54:37;;;;;;;;;;;;;;;14.38;75.30;97459.09;110400;1247;67594;-70
2022/07/21 02:57:07;;;;;;;;;;;;;;;14.30;74.72;97461.04;110499;1247;69186;-68
2022/07/21 02:59:42;;;;;;;;;;;;;;;14.24;75.50;97463.42;110505;1247;59684;-66
2022/07/21 03:02:12;;;;;;;;;;;;;;;14.23;76.75;97462.23;110588;1246;59750;-67
2022/07/21 03:04:41;;;;;;;;;;;;;;;14.23;77.41;97464.14;110558;1247;71745;-67
2022/07/21 03:07:11;;;;;;;;;;;;;;;14.24;76.84;97466.61;110340;1247;67710;-68
2022/07/21 03:09:42;;;;;;;;;;;;;;;14.23;77.02;97463.45;110289;1245;68615;-68
2022/07/21 03:12:12;;;;;;;;;;;;;;;14.25;77.30;97466.48;110107;1247;59745;-73
2022/07/21 03:14:43;;;;;;;;;;;;;;;14.25;76.49;97467.14;110217;1247;59693;-72
2022/07/21 03:17:12;;;;;;;;;;;;;;;14.24;74.67;97472.15;110502;1244;71497;-65
2022/07/21 03:19:42;;;;;;;;;;;;;;;14.22;72.50;97467.12;110264;1245;67604;-67
2022/07/21 03:22:11;;;;;;;;;;;;;;;14.20;72.35;97466.02;110058;1247;69340;-65
2022/07/21 03:24:41;;;;;;;;;;;;;;;14.21;75.20;97467.56;110510;1247;59761;-69
2022/07/21 03:27:12;;;;;;;;;;;;;;;14.22;76.60;97468.70;110170;1247;59739;-66
2022/07/21 03:29:42;;;;;;;;;;;;;;;14.23;76.89;97465.10;110497;1245;71524;-64
2022/07/21 03:32:12;;;;;;;;;;;;;;;14.23;75.17;97464.20;110579;1245;67689;-67
2022/07/21 03:34:41;;;;;;;;;;;;;;;14.26;76.86;97461.34;110165;1247;69247;-67
2022/07/21 03:37:11;;;;;;;;;;;;;;;14.30;76.04;97468.70;110529;1247;59791;-66
2022/07/21 03:39:40;;;;;;;;;;;;;;;14.36;75.89;97474.70;110531;1247;59756;-65
2022/07/21 03:42:10;;;;;;;;;;;;;;;14.42;77.64;97483.42;110401;1245;71423;-70
2022/07/21 03:44:40;;;;;;;;;;;;;;;14.46;74.94;97488.67;110569;1244;68532;-63
2022/07/21 03:47:10;;;;;;;;;;;;;;;14.52;72.34;97488.04;110297;1246;69089;-67
2022/07/21 03:49:40;;;;;;;;;;;;;;;14.56;72.46;97488.39;110183;1247;60180;-67
2022/07/21 03:52:10;;;;;;;;;;;;;;;14.61;72.52;97488.79;110422;1246;59643;-65
2022/07/21 03:54:39;;;;;;;;;;;;;;;14.66;74.47;97494.67;110186;1247;71557;-65
2022/07/21 03:57:08;;;;;;;;;;;;;;;14.71;72.90;97495.13;110424;1246;68479;-64
2022/07/21 03:59:38;;;;;;;;;;;;;;;14.75;71.79;97497.55;110360;1247;69462;-65
2022/07/21 04:02:07;;;;;;;;;;;;;;;14.79;72.62;97496.64;110365;1246;59726;-64
2022/07/21 04:04:37;;;;;;;;;;;;;;;14.84;74.10;97498.89;110475;1246;59664;-64
2022/07/21 04:07:06;;;;;;;;;;;;;;;14.89;72.35;97492.14;110201;1247;70890;-64
2022/07/21 04:09:36;;;;;;;;;;;;;;;14.95;74.38;97494.25;110376;1247;67730;-67
2022/07/21 04:12:05;;;;;;;;;;;;;;;15.02;71.80;97492.90;110231;1247;69430;-68
2022/07/21 04:14:34;;;;;;;;;;;;;;;15.09;71.31;97493.66;110390;1246;59632;-65
2022/07/21 04:17:04;;;;;;;;;;;;;;;15.17;71.70;97493.10;110423;1246;59661;-66
2022/07/21 04:19:33;;;;;;;;;;;;;;;15.22;73.97;97488.25;110251;1247;70732;-75
2022/07/21 04:22:02;;;;;;;;;;;;;;;15.31;73.34;97485.90;110431;1246;68576;-76
2022/07/21 04:24:32;;;;;;;;;;;;;;;15.43;73.53;97479.52;110215;1247;69373;-72
2022/07/21 04:27:01;;;;;;;;;;;;;;;15.52;73.82;97484.10;110390;1247;59700;-66
2022/07/21 04:29:30;;;;;;;;;;;;;;;15.61;72.97;97483.86;110482;1244;59670;-66
2022/07/21 04:31:59;;;;;;;;;;;;;;;15.71;73.51;97483.42;110272;1247;71413;-69
2022/07/21 04:34:28;;;;;;;;;;;;;;;15.84;72.97;97488.60;110288;1247;68470;-67
2022/07/21 04:36:57;;;;;;;;;;;;;;;15.95;73.84;97484.36;110292;1247;68731;-70
2022/07/21 04:39:27;;;;;;;;;;;;;;;16.11;73.36;97484.50;110442;1246;59771;-65
2022/07/21 04:41:56;;;;;;;;;;;;;;;16.28;72.52;97487.43;110372;1247;59680;-65
2022/07/21 04:44:25;;;;;;;;;;;;;;;16.43;71.81;97489.92;110448;1245;70571;-67
2022/07/21 04:46:55;;;;;;;;;;;;;;;16.55;70.89;97485.70;110201;1247;68688;-66
2022/07/21 04:49:24;;;;;;;;;;;;;;;16.68;70.06;97490.60;110395;1245;68830;-66
2022/07/21 04:51:53;;;;;;;;;;;;;;;16.82;69.24;97485.10;110481;1245;59753;-66
2022/07/21 04:54:28;;;;;;;;;;;;;;;16.96;68.91;97485.88;110392;1245;59618;-68
2022/07/21 04:56:57;;;;;;;;;;;;;;;17.08;68.82;97488.36;110480;1246;70482;-70
2022/07/21 04:59:26;;;;;;;;;;;;;;;17.18;68.43;97485.31;110248;1247;68844;-68
2022/07/21 05:01:55;;;;;;;;;;;;;;;17.30;68.09;97488.17;110298;1245;69521;-67
2022/07/21 05:04:25;;;;;;;;;;;;;;;17.39;67.52;97491.45;110398;1247;59684;-71
2022/07/21 05:06:54;;;;;;;;;;;;;;;17.53;67.30;97488.11;110204;1247;59661;-67
2022/07/21 05:09:23;;;;;;;;;;;;;;;17.71;66.85;97493.96;110372;1247;70760;-68
2022/07/21 05:11:52;;;;;;;;;;;;;;;17.85;66.28;97493.00;110167;1247;68527;-69
2022/07/21 05:14:21;;;;;;;;;;;;;;;18.06;65.80;97496.34;110177;1247;68610;-67
2022/07/21 05:16:50;;;;;;;;;;;;;;;18.27;65.19;97497.73;110369;1245;59750;-72
2022/07/21 05:19:19;;;;;;;;;;;;;;;18.50;64.12;97492.89;110201;1245;59775;-68
2022/07/21 05:21:49;;;;;;;;;;;;;;;18.86;63.84;97488.75;110365;1242;70587;-65
2022/07/21 05:24:22;;;;;;;;;;;;;;;19.29;62.78;97487.54;110362;1246;67470;-67
2022/07/21 05:27:00;;;;;;;;;;;;;;;19.74;62.29;97484.38;110247;1246;68522;-66
2022/07/21 05:29:33;;;;;;;;;;;;;;;20.19;60.59;97490.73;110215;1247;59712;-67
2022/07/21 05:32:02;;;;;;;;;;;;;;;20.50;59.37;97488.47;110387;1244;59601;-69
2022/07/21 05:34:31;;;;;;;;;;;;;;;21.04;58.98;97489.08;110441;1245;70857;-67
2022/07/21 05:37:00;;;;;;;;;;;;;;;21.61;58.81;97487.34;110196;1247;68500;-66
2022/07/21 05:39:29;;;;;;;;;;;;;;;22.03;55.70;97489.15;110371;1245;69540;-68
2022/07/21 05:41:58;;;;;;;;;;;;;;;21.89;53.71;97486.17;110462;1244;59691;-66
2022/07/21 05:44:27;;;;;;;;;;;;;;;22.06;53.70;97491.17;110397;1247;59697;-66
2022/07/21 05:46:56;;;;;;;;;;;;;;;22.10;53.10;97489.91;110274;1247;71564;-67
2022/07/21 05:49:24;;;;;;;;;;;;;;;21.97;53.15;97485.20;110437;1246;67836;-67
2022/07/21 05:51:53;;;;;;;;;;;;;;;21.92;53.34;97482.06;110522;1245;69675;-67
2022/07/21 05:54:22;;;;;;;;;;;;;;;21.84;53.47;97480.42;110394;1245;59702;-67
2022/07/21 05:56:51;;;;;;;;;;;;;;;21.71;53.72;97482.20;110480;1246;59714;-69
2022/07/21 05:59:20;;;;;;;;;;;;;;;21.72;53.38;97482.52;110108;1247;71563;-67
2022/07/21 06:01:48;;;;;;;;;;;;;;;21.63;53.22;97484.23;110246;1246;68456;-67
2022/07/21 06:04:17;;;;;;;;;;;;;;;21.52;53.12;97482.13;110496;1244;69856;-68
2022/07/21 06:06:46;;;;;;;;;;;;;;;21.68;53.16;97481.06;110434;1247;59752;-67
2022/07/21 06:09:15;;;;;;;;;;;;;;;21.87;53.00;97478.79;110425;1246;59688;-71
2022/07/21 06:11:44;;;;;;;;;;;;;;;22.22;52.32;97482.25;110231;1247;71577;-69
2022/07/21 06:14:13;;;;;;;;;;;;;;;22.65;50.55;97478.84;110465;1247;67812;-68
2022/07/21 06:16:42;;;;;;;;;;;;;;;23.15;49.61;97477.48;110433;1244;68727;-68
2022/07/21 06:19:11;;;;;;;;;;;;;;;23.65;48.16;97476.67;110201;1247;59763;-69
2022/07/21 06:21:40;;;;;;;;;;;;;;;24.04;46.48;97476.02;110550;1245;59715;-69
2022/07/21 06:24:14;;;;;;;;;;;;;;;24.43;45.77;97475.45;110247;1247;71684;-71
2022/07/21 06:26:43;;;;;;;;;;;;;;;24.89;46.09;97476.28;110451;1244;68606;-69
2022/07/21 06:29:12;;;;;;;;;;;;;;;25.31;43.70;97473.48;110443;1245;68924;-70
2022/07/21 06:31:41;;;;;;;;;;;;;;;25.72;43.65;97467.98;110391;1246;59676;-71
2022/07/21 06:34:10;;;;;;;;;;;;;;;26.25;43.62;97468.76;110185;1247;59634;-70
2022/07/21 06:36:39;;;;;;;;;;;;;;;26.61;41.94;97467.15;110429;1246;71079;-69
2022/07/21 06:39:07;;;;;;;;;;;;;;;26.77;40.82;97468.38;110450;1245;68178;-70
2022/07/21 06:41:36;;;;;;;;;;;;;;;27.06;41.34;97469.94;110437;1246;68450;-70
2022/07/21 06:44:09;;;;;;;;;;;;;;;27.38;39.66;97467.65;110263;1247;59763;-71
2022/07/21 06:46:38;;;;;;;;;;;;;;;27.68;38.74;97464.67;110446;1246;59693;-68
2022/07/21 06:49:07;;;;;;;;;;;;;;;27.93;38.28;97466.66;110559;1244;70967;-68
2022/07/21 06:51:36;;;;;;;;;;;;;;;28.07;37.68;97463.23;110464;1246;69110;-69
2022/07/21 06:54:05;;;;;;;;;;;;;;;28.28;37.43;97464.92;110394;1244;69442;-71
2022/07/21 06:56:34;;;;;;;;;;;;;;;28.53;37.42;97464.67;110486;1246;59764;-69
2022/07/21 06:59:03;;;;;;;;;;;;;;;28.90;36.70;97462.82;110107;1247;59624;-71
2022/07/21 07:01:33;;;;;;;;;;;;;;;29.12;35.13;97468.10;110461;1244;71465;-71
2022/07/21 07:04:03;;;;;;;;;;;;;;;29.22;34.76;97472.02;110243;1245;67861;-70
2022/07/21 07:06:33;;;;;;;;;;;;;;;29.18;34.16;97470.21;110488;1244;69540;-70
2022/07/21 07:09:02;;;;;;;;;;;;;;;29.02;34.77;97467.11;110356;1244;60156;-69
2022/07/21 07:11:34;;;;;;;;;;;;;;;29.44;34.06;97467.72;110470;1245;59643;-72
2022/07/21 07:14:02;;;;;;;;;;;;;;;29.72;33.31;97465.02;110269;1244;71092;-71
2022/07/21 07:16:45;;;;;;;;;;;;;;;29.62;33.66;97461.94;110311;1245;68214;-71
2022/07/21 07:19:14;;;;;;;;;;;;;;;29.84;34.01;97461.92;110202;1247;68909;-69
2022/07/21 07:21:43;;;;;;;;;;;;;;;29.79;33.25;97460.80;110427;1243;59609;-69
2022/07/21 07:24:12;;;;;;;;;;;;;;;29.71;33.50;97461.05;110436;1245;59682;-69
2022/07/21 07:26:40;;;;;;;;;;;;;;;30.18;33.16;97459.89;110421;1247;71503;-70
2022/07/21 07:29:10;;;;;;;;;;;;;;;30.29;32.58;97457.70;110111;1248;67779;-69
2022/07/21 07:31:39;;;;;;;;;;;;;;;30.43;33.04;97465.13;110389;1244;69272;-70
2022/07/21 07:34:09;;;;;;;;;;;;;;;30.00;31.85;97458.65;110393;1245;60099;-68
2022/07/21 07:36:38;;;;;;;;;;;;;;;30.46;32.52;97457.52;110476;1245;59728;-68
2022/07/21 07:39:15;;;;;;;;;;;;;;;30.70;31.77;97454.09;109680;1244;677255;-69
2022/07/21 07:41:44;;;;;;;;;;;;;;;30.73;32.21;97453.95;110219;1247;68675;-68
2022/07/21 07:44:13;;;;;;;;;;;;;;;30.88;32.11;97456.19;110550;1247;69422;-71
2022/07/21 07:46:42;;;;;;;;;;;;;;;31.16;31.49;97459.85;110384;1244;59693;-70
2022/07/21 07:49:10;;;;;;;;;;;;;;;31.44;31.28;97452.55;110232;1247;59728;-69
2022/07/21 07:51:46;;;;;;;;;;;;;;;31.49;31.10;97451.17;110504;1244;71375;-69
2022/07/21 07:54:15;;;;;;;;;;;;;;;31.35;30.94;97451.16;110424;1244;69336;-71
2022/07/21 07:56:44;;;;;;;;;;;;;;;31.43;30.95;97452.25;110541;1245;69504;-69
2022/07/21 07:59:12;;;;;;;;;;;;;;;31.71;31.07;97445.13;110451;1245;59735;-70
2022/07/21 08:01:42;;;;;;;;;;;;;;;31.98;30.53;97440.59;110419;1245;59760;-69
2022/07/21 08:04:11;;;;;;;;;;;;;;;32.25;30.06;97436.30;110514;1244;70765;-69
2022/07/21 08:06:40;;;;;;;;;;;;;;;32.42;29.30;97437.15;110185;1247;68853;-68
2022/07/21 08:09:08;;;;;;;;;;;;;;;32.77;28.71;97437.23;110503;1244;69437;-70
2022/07/21 08:11:37;;;;;;;;;;;;;;;33.08;27.89;97432.34;110166;1247;59680;-70
2022/07/21 08:14:06;;;;;;;;;;;;;;;33.34;28.00;97437.15;110232;1247;59747;-70
2022/07/21 08:16:35;;;;;;;;;;;;;;;33.50;27.27;97438.71;110399;1245;71552;-71
2022/07/21 08:19:04;;;;;;;;;;;;;;;33.61;26.91;97436.16;110226;1247;68589;-69
2022/07/21 08:21:35;;;;;;;;;;;;;;;32.62;26.99;97435.46;110411;1247;69435;-69
2022/07/21 08:24:24;;;;;;;;;;;;;;;32.54;27.87;97431.59;110399;1245;59665;-70
2022/07/21 08:26:53;;;;;;;;;;;;;;;32.84;27.59;97432.87;110458;1245;59732;-69
2022/07/21 08:29:22;;;;;;;;;;;;;;;32.56;27.26;97427.05;110520;1245;71556;-70
2022/07/21 08:31:51;;;;;;;;;;;;;;;31.65;28.36;97423.06;110379;1246;67959;-70
2022/07/21 08:34:20;;;;;;;;;;;;;;;30.22;30.14;97421.61;110272;1244;68495;-71
2022/07/21 08:36:48;;;;;;;;;;;;;;;31.30;28.98;97425.98;110467;1245;59739;-70
2022/07/21 08:39:17;;;;;;;;;;;;;;;31.79;28.21;97426.92;110499;1245;59732;-70
2022/07/21 08:41:46;;;;;;;;;;;;;;;31.83;26.83;97416.63;110365;1245;71577;-70
2022/07/21 08:44:22;;;;;;;;;;;;;;;32.39;27.18;97417.70;110126;1247;67822;-70
2022/07/21 08:46:51;;;;;;;;;;;;;;;32.88;26.82;97419.70;110219;1246;69536;-70
2022/07/21 08:49:22;;;;;;;;;;;;;;;33.08;26.56;97418.58;110125;1245;59768;-70
2022/07/21 08:51:51;;;;;;;;;;;;;;;33.31;25.60;97418.80;110484;1245;59802;-70
2022/07/21 08:54:21;;;;;;;;;;;;;;;33.31;25.82;97414.63;110469;1245;71697;-69
2022/07/21 08:56:49;;;;;;;;;;;;;;;33.60;24.52;97413.11;110506;1244;67832;-70
2022/07/21 08:59:18;;;;;;;;;;;;;;;33.63;24.25;97409.74;110376;1244;68649;-70
2022/07/21 09:01:55;;;;;;;;;;;;;;;33.59;24.51;97410.15;110446;1244;59755;-71
2022/07/21 09:04:29;;;;;;;;;;;;;;;32.51;23.93;97413.83;110381;1244;59750;-70
2022/07/21 09:07:06;;;;;;;;;;;;;;;31.53;25.12;97410.52;110262;1247;71072;-70
2022/07/21 09:09:36;;;;;;;;;;;;;;;32.51;24.96;97411.23;110245;1245;68329;-69
2022/07/21 09:12:05;;;;;;;;;;;;;;;32.86;23.88;97414.00;110365;1244;69442;-72
2022/07/21 09:14:35;;;;;;;;;;;;;;;32.81;23.47;97414.85;110513;1244;59721;-70
2022/07/21 09:17:04;;;;;;;;;;;;;;;33.33;23.31;97403.70;110412;1244;59685;-70
2022/07/21 09:19:44;;;;;;;;;;;;;;;33.63;23.70;97405.54;110476;1247;71521;-70
2022/07/21 09:22:16;;;;;;;;;;;;;;;33.95;23.56;97402.31;110387;1246;68589;-70
2022/07/21 09:24:48;;;;;;;;;;;;;;;34.41;22.81;97404.27;110435;1245;67961;-70
2022/07/21 09:27:20;;;;;;;;;;;;;;;34.80;21.75;97400.14;110371;1245;59735;-71
2022/07/21 09:29:49;;;;;;;;;;;;;;;35.22;21.57;97401.70;110402;1245;59688;-69
2022/07/21 09:32:23;;;;;;;;;;;;;;;35.46;21.82;97398.73;110413;1244;72232;-70
2022/07/21 09:35:03;;;;;;;;;;;;;;;35.54;21.54;97397.17;110226;1246;68608;-70
2022/07/21 09:37:36;;;;;;;;;;;;;;;35.70;21.70;97398.31;110216;1247;68708;-69
2022/07/21 09:40:09;;;;;;;;;;;;;;;36.08;20.26;97390.04;110254;1246;59759;-70
2022/07/21 09:42:38;;;;;;;;;;;;;;;36.14;20.35;97388.08;110201;1247;59634;-69
2022/07/21 09:45:09;;;;;;;;;;;;;;;36.51;20.30;97385.56;110217;1246;70789;-70
2022/07/21 09:47:38;;;;;;;;;;;;;;;36.71;21.30;97384.34;110344;1245;68020;-70
2022/07/21 09:50:08;;;;;;;;;;;;;;;36.86;20.49;97386.43;110236;1247;70054;-70
2022/07/21 09:52:57;;;;;;;;;;;;;;;37.18;19.51;97384.17;110111;1247;59801;-70
2022/07/21 09:55:28;;;;;;;;;;;;;;;37.22;18.70;97385.17;110303;1247;59656;-71
2022/07/21 09:57:58;;;;;;;;;;;;;;;37.13;18.67;97387.57;110180;1247;71544;-70
2022/07/21 10:00:27;;;;;;;;;;;;;;;36.89;18.62;97381.90;110339;1246;67842;-69
2022/07/21 10:02:57;;;;;;;;;;;;;;;36.65;18.87;97377.23;109984;1247;69514;-72
2022/07/21 10:05:26;;;;;;;;;;;;;;;36.58;19.46;97372.90;110219;1247;59803;-71
2022/07/21 10:08:02;;;;;;;;;;;;;;;36.50;19.79;97372.23;110275;1247;59646;-72
2022/07/21 10:10:35;;;;;;;;;;;;;;;36.79;18.20;97370.30;110279;1245;71600;-72
2022/07/21 10:13:24;;;;;;;;;;;;;;;36.78;17.39;97368.77;110185;1246;68697;-70
2022/07/21 10:15:54;;;;;;;;;;;;;;;36.67;17.66;97374.05;110217;1247;67883;-70
2022/07/21 10:18:30;;;;;;;;;;;;;;;36.50;18.10;97370.33;110217;1247;59745;-70
2022/07/21 10:21:10;;;;;;;;;;;;;;;36.25;18.62;97368.98;110271;1247;59674;-69
2022/07/21 10:23:41;;;;;;;;;;;;;;;36.23;18.90;97368.30;110258;1247;71009;-71
2022/07/21 10:26:11;;;;;;;;;;;;;;;36.34;18.30;97368.80;110299;1247;68638;-70
2022/07/21 10:28:40;;;;;;;;;;;;;;;36.12;18.05;97366.80;110239;1247;69409;-69
2022/07/21 10:31:22;;;;;;;;;;;;;;;36.13;18.13;97366.31;110116;1247;59703;-69
2022/07/21 10:33:52;;;;;;;;;;;;;;;35.98;17.11;97363.52;110254;1245;59746;-70
2022/07/21 10:36:27;;;;;;;;;;;;;;;35.78;16.35;97362.56;110395;1246;71295;-69
2022/07/21 10:39:08;;;;;;;;;;;;;;;35.43;16.97;97369.28;110481;1244;68556;-69
2022/07/21 10:41:38;;;;;;;;;;;;;;;35.32;16.80;97370.26;110452;1245;69421;-70
2022/07/21 10:44:26;;;;;;;;;;;;;;;34.93;16.56;97366.19;110276;1247;59697;-73
2022/07/21 10:47:10;;;;;;;;;;;;;;;34.60;16.89;97364.67;110484;1244;59640;-70
2022/07/21 10:49:41;;;;;;;;;;;;;;;34.51;17.48;97360.30;110511;1244;70805;-71
2022/07/21 10:52:29;;;;;;;;;;;;;;;34.55;18.20;97355.88;110410;1244;67803;-69
2022/07/21 10:55:10;;;;;;;;;;;;;;;34.54;19.22;97352.13;110231;1247;69525;-72
2022/07/21 10:57:46;;;;;;;;;;;;;;;34.31;19.07;97351.63;110494;1244;59728;-69
2022/07/21 11:00:18;;;;;;;;;;;;;;;34.00;18.74;97350.55;110425;1245;59681;-69
2022/07/21 11:02:54;;;;;;;;;;;;;;;33.14;19.16;97348.30;110431;1246;71416;-70
2022/07/21 11:05:24;;;;;;;;;;;;;;;33.35;19.75;97345.38;110472;1245;67806;-69
2022/07/21 11:08:10;;;;;;;;;;;;;;;33.74;20.33;97342.91;110176;1245;68676;-69
2022/07/21 11:10:41;;;;;;;;;;;;;;;34.08;20.53;97343.08;110459;1244;59799;-71
2022/07/21 11:13:10;;;;;;;;;;;;;;;34.19;19.91;97348.98;110290;1244;60165;-71
2022/07/21 11:15:53;;;;;;;;;;;;;;;34.35;19.88;97344.98;110463;1244;71604;-68
2022/07/21 11:18:24;;;;;;;;;;;;;;;34.52;18.95;97336.24;110483;1245;67002;-70
2022/07/21 11:21:02;;;;;;;;;;;;;;;34.67;18.49;97331.53;110378;1244;69471;-69
2022/07/21 11:23:41;;;;;;;;;;;;;;;34.69;19.39;97336.04;110188;1247;59672;-69
2022/07/21 11:26:10;;;;;;;;;;;;;;;34.95;19.31;97337.73;110417;1244;59741;-70
2022/07/21 11:28:39;;;;;;;;;;;;;;;35.14;18.39;97338.95;110257;1247;71671;-70
2022/07/21 11:31:21;;;;;;;;;;;;;;;34.78;17.86;97338.30;110550;1245;68372;-70
2022/07/21 11:33:50;;;;;;;;;;;;;;;35.05;18.07;97331.72;110524;1244;68677;-69
2022/07/21 11:36:30;;;;;;;;;;;;;;;34.56;18.14;97332.61;110512;1244;59773;-70
2022/07/21 11:39:07;;;;;;;;;;;;;;;34.51;18.39;97332.35;110193;1245;59723;-70
2022/07/21 11:41:37;;;;;;;;;;;;;;;34.84;18.38;97335.69;110220;1244;72070;-72
2022/07/21 11:44:06;;;;;;;;;;;;;;;35.04;18.41;97331.99;110556;1244;67176;-70
2022/07/21 11:46:52;;;;;;;;;;;;;;;35.04;17.91;97329.49;110498;1244;69411;-69
2022/07/21 11:49:22;;;;;;;;;;;;;;;35.25;17.92;97321.07;110246;1244;59640;-70
2022/07/21 11:51:54;;;;;;;;;;;;;;;34.74;17.11;97326.16;110224;1247;59694;-69
2022/07/21 11:54:25;;;;;;;;;;;;;;;34.94;17.53;97326.05;110383;1245;71337;-69
2022/07/21 11:56:54;;;;;;;;;;;;;;;34.14;17.37;97328.13;110354;1244;67797;-69
2022/07/21 11:59:23;;;;;;;;;;;;;;;33.95;17.82;97323.09;110516;1244;69413;-70
2022/07/21 12:01:54;;;;;;;;;;;;;;;33.61;18.93;97320.29;110310;1245;59692;-69
2022/07/21 12:04:35;;;;;;;;;;;;;;;33.94;18.87;97323.18;110245;1244;59676;-74
2022/07/21 12:07:10;;;;;;;;;;;;;;;34.28;18.30;97311.52;110501;1244;70930;-69
2022/07/21 12:09:42;;;;;;;;;;;;;;;34.52;19.26;97310.59;110417;1244;68540;-70
2022/07/21 12:12:32;;;;;;;;;;;;;;;34.79;18.69;97305.66;110199;1244;68680;-76
2022/07/21 12:15:18;;;;;;;;;;;;;;;34.98;18.00;97301.73;110404;1244;59736;-71
2022/07/21 12:17:48;;;;;;;;;;;;;;;34.33;17.79;97298.02;110504;1244;59653;-70
2022/07/21 12:20:25;;;;;;;;;;;;;;;34.21;18.01;97297.95;110429;1244;71421;-71
2022/07/21 12:22:57;;;;;;;;;;;;;;;34.23;18.15;97293.17;110224;1247;68689;-73
2022/07/21 12:25:34;;;;;;;;;;;;;;;33.95;18.12;97287.52;110234;1247;69527;-71
2022/07/21 12:28:04;;;;;;;;;;;;;;;34.16;19.27;97288.86;110387;1245;59757;-72
2022/07/21 12:30:44;;;;;;;;;;;;;;;34.25;18.19;97287.64;110488;1245;59845;-71
2022/07/21 12:33:14;;;;;;;;;;;;;;;34.39;18.93;97286.65;110392;1244;71612;-73
2022/07/21 12:36:00;;;;;;;;;;;;;;;34.52;18.74;97290.73;110536;1244;67925;-71
2022/07/21 12:38:38;;;;;;;;;;;;;;;34.78;18.48;97284.52;110441;1244;68759;-70
2022/07/21 12:41:08;;;;;;;;;;;;;;;33.99;18.01;97289.09;110391;1244;59804;-70
2022/07/21 12:43:56;;;;;;;;;;;;;;;34.24;18.51;97288.89;110477;1244;59634;-73
2022/07/21 12:46:29;;;;;;;;;;;;;;;34.44;19.27;97285.38;110361;1244;71675;-70
2022/07/21 12:49:12;;;;;;;;;;;;;;;34.55;17.84;97285.42;110472;1245;68595;-73
2022/07/21 12:51:42;;;;;;;;;;;;;;;33.92;16.76;97280.08;110347;1244;68655;-71
2022/07/21 12:54:11;;;;;;;;;;;;;;;33.90;17.13;97275.45;110399;1244;59699;-70
2022/07/21 12:56:40;;;;;;;;;;;;;;;33.38;17.28;97270.41;110200;1245;59700;-71
2022/07/21 12:59:14;;;;;;;;;;;;;;;32.72;18.47;97275.98;110191;1247;71773;-70